Time;durP1;ratioP1;P1;durP2;ratioP2;P2;SDS_P1;SDS_P2;PMS_P1;PMS_P2;Temp;Humidity;BMP_temperature;BMP_pressure;BME280_temperature;BME280_humidity;BME280_pressure;Samples;Min_cycle;Max_cycle;Signal;HPM_P1;HPM_P2
2024/02/02 00:00:43;;;;;;;11.80;4.07;;;;;;;5.28;100.00;103142.75;6084766;19;20467;-72
2024/02/02 00:02:48;;;;;;;14.10;4.93;;;;;;;5.32;100.00;103116.72;6082835;19;20007;-72
2024/02/02 00:04:56;;;;;;;15.77;5.80;;;;;;;5.30;100.00;103110.63;6085799;19;20355;-72
2024/02/02 00:07:01;;;;;;;15.45;4.95;;;;;;;5.33;100.00;103108.06;6085592;19;20027;-72
2024/02/02 00:09:07;;;;;;;13.77;4.78;;;;;;;5.28;100.00;103105.38;6086856;19;20409;-71
2024/02/02 00:11:12;;;;;;;14.95;4.38;;;;;;;5.27;100.00;103108.84;6083498;19;20022;-72
2024/02/02 00:13:18;;;;;;;10.27;4.30;;;;;;;5.26;100.00;103107.06;6085005;19;20035;-71
2024/02/02 00:15:23;;;;;;;18.30;5.53;;;;;;;5.25;100.00;103114.00;6081066;19;20027;-72
2024/02/02 00:17:31;;;;;;;15.40;4.55;;;;;;;5.28;100.00;103121.88;6082995;19;20046;-71
2024/02/02 00:19:36;;;;;;;15.82;5.15;;;;;;;5.28;100.00;103118.41;6083662;19;20464;-72
2024/02/02 00:21:44;;;;;;;10.05;4.72;;;;;;;5.30;100.00;103119.31;6083516;19;20021;-71
2024/02/02 00:23:49;;;;;;;14.73;5.00;;;;;;;5.27;100.00;103138.38;6081053;19;20003;-71
2024/02/02 00:25:54;;;;;;;10.57;3.83;;;;;;;5.27;100.00;103133.19;6082249;19;20496;-71
2024/02/02 00:28:00;;;;;;;9.55;3.70;;;;;;;5.28;100.00;103131.44;6082325;19;20006;-72
2024/02/02 00:30:04;;;;;;;13.23;4.32;;;;;;;5.25;100.00;103142.69;6082953;19;20025;-72
2024/02/02 00:32:09;;;;;;;9.88;4.60;;;;;;;5.23;100.00;103144.38;6083702;19;20384;-71
2024/02/02 00:34:14;;;;;;;11.13;4.00;;;;;;;5.23;100.00;103141.78;6078753;19;20082;-70
2024/02/02 00:36:19;;;;;;;10.90;4.47;;;;;;;5.26;100.00;103144.44;6086310;19;20482;-73
2024/02/02 00:38:27;;;;;;;12.93;4.15;;;;;;;5.24;100.00;103124.44;6088914;19;20014;-73
2024/02/02 00:40:32;;;;;;;12.00;3.88;;;;;;;5.24;100.00;103114.88;6088144;19;20011;-71
2024/02/02 00:42:35;;;;;;;14.32;4.20;;;;;;;5.19;100.00;103111.31;6088155;19;20009;-73
2024/02/02 00:44:40;;;;;;;14.18;4.45;;;;;;;5.18;100.00;103106.06;6083823;19;20039;-71
2024/02/02 00:46:45;;;;;;;11.00;4.70;;;;;;;5.18;100.00;103106.06;6090249;19;20010;-72
2024/02/02 00:48:51;;;;;;;15.07;4.60;;;;;;;5.19;100.00;103108.69;6088122;19;20042;-71
2024/02/02 00:50:56;;;;;;;12.98;5.25;;;;;;;5.22;100.00;103106.16;6086298;19;20015;-72
2024/02/02 00:53:01;;;;;;;15.90;5.40;;;;;;;5.24;100.00;103107.06;6087084;19;20090;-72
2024/02/02 00:55:10;;;;;;;18.52;5.28;;;;;;;5.23;100.00;103107.00;6089192;19;20483;-71
2024/02/02 00:57:15;;;;;;;13.40;4.72;;;;;;;5.23;100.00;103112.22;6089971;19;20021;-72
2024/02/02 00:59:20;;;;;;;13.82;4.53;;;;;;;5.25;100.00;103106.19;6086530;19;20471;-72
2024/02/02 01:01:22;;;;;;;13.45;4.13;;;;;;;5.21;100.00;103107.00;6088998;19;20027;-72
2024/02/02 01:03:28;;;;;;;14.43;5.28;;;;;;;5.27;100.00;103107.09;6086336;19;20422;-71
2024/02/02 01:05:33;;;;;;;15.20;4.78;;;;;;;5.25;100.00;103100.97;6086447;19;20021;-71
2024/02/02 01:07:40;;;;;;;11.88;4.15;;;;;;;5.24;100.00;103088.81;6089244;19;20082;-71
2024/02/02 01:09:43;;;;;;;21.00;4.65;;;;;;;5.15;100.00;103085.16;6087943;19;20010;-72
2024/02/02 01:11:53;;;;;;;17.48;5.05;;;;;;;5.20;100.00;103086.97;6088226;19;20006;-73
2024/02/02 01:13:59;;;;;;;15.00;4.55;;;;;;;5.23;100.00;103089.63;6084523;19;20012;-71
2024/02/02 01:16:04;;;;;;;15.50;5.57;;;;;;;5.25;100.00;103087.94;6087272;19;20006;-71
2024/02/02 01:18:09;;;;;;;19.17;5.75;;;;;;;5.21;100.00;103083.53;6089501;19;20456;-71
2024/02/02 01:20:15;;;;;;;14.00;3.88;;;;;;;5.25;100.00;103090.56;6088615;19;20039;-72
2024/02/02 01:22:21;;;;;;;17.95;6.22;;;;;;;5.27;100.00;103086.25;6087989;19;20015;-71
2024/02/02 01:24:26;;;;;;;17.67;5.22;;;;;;;5.30;100.00;103090.66;6088978;19;20578;-71
2024/02/02 01:26:31;;;;;;;12.43;6.30;;;;;;;5.31;100.00;103079.34;6089567;19;20505;-71
2024/02/02 01:28:39;;;;;;;21.55;5.45;;;;;;;5.39;100.00;103076.88;6086386;19;20593;-71
2024/02/02 01:30:44;;;;;;;12.38;4.38;;;;;;;5.38;100.00;103062.97;6081009;19;20023;-71
2024/02/02 01:32:49;;;;;;;9.32;3.97;;;;;;;5.45;100.00;103066.53;6089610;19;20679;-70
2024/02/02 01:34:52;;;;;;;16.70;5.15;;;;;;;5.47;100.00;103065.72;6087177;19;20010;-71
2024/02/02 01:36:57;;;;;;;21.08;5.10;;;;;;;5.52;100.00;103060.59;6089649;19;20014;-71
2024/02/02 01:39:03;;;;;;;15.18;4.97;;;;;;;5.54;100.00;103058.88;6089247;19;20031;-72
2024/02/02 01:41:08;;;;;;;13.88;3.88;;;;;;;5.55;100.00;103052.81;6086588;19;20031;-72
2024/02/02 01:43:12;;;;;;;10.73;3.65;;;;;;;5.57;100.00;103056.31;6086738;19;20502;-71
2024/02/02 01:45:20;;;;;;;10.32;3.92;;;;;;;5.57;100.00;103045.88;6084555;19;20446;-71
2024/02/02 01:47:27;;;;;;;14.23;4.80;;;;;;;5.62;100.00;103032.94;6086618;19;20025;-71
2024/02/02 01:49:34;;;;;;;14.07;4.60;;;;;;;5.64;100.00;103024.28;6087207;19;20077;-71
2024/02/02 01:51:45;;;;;;;15.75;4.38;;;;;;;5.64;100.00;103024.28;6086679;19;20495;-72
2024/02/02 01:53:50;;;;;;;15.73;4.75;;;;;;;5.67;100.00;103018.22;6084565;19;20031;-72
2024/02/02 01:55:57;;;;;;;13.65;4.25;;;;;;;5.67;100.00;103021.69;6085112;19;20006;-72
2024/02/02 01:58:02;;;;;;;12.90;4.38;;;;;;;5.68;100.00;103014.75;6087357;19;20042;-71
2024/02/02 02:00:09;;;;;;;11.35;3.95;;;;;;;5.67;100.00;103021.69;6085704;19;20664;-71
2024/02/02 02:02:17;;;;;;;22.08;4.80;;;;;;;5.61;100.00;103024.22;6086598;19;20503;-72
2024/02/02 02:04:22;;;;;;;16.10;4.13;;;;;;;5.63;100.00;103014.66;6086395;19;20015;-72
2024/02/02 02:06:27;;;;;;;14.73;4.05;;;;;;;5.67;100.00;103000.84;6086593;19;20024;-71
2024/02/02 02:08:33;;;;;;;14.18;4.70;;;;;;;5.61;100.00;103008.56;6087092;19;21435;-71
2024/02/02 02:10:36;;;;;;;9.15;4.22;;;;;;;5.63;100.00;103004.25;6087970;19;20009;-71
2024/02/02 02:12:40;;;;;;;;;;;;;;;5.58;100.00;102999.81;6085041;19;20014;-71
2024/02/02 02:14:46;;;;;;;13.45;4.03;;;;;;;5.54;100.00;102998.91;6079584;19;19917;-71
2024/02/02 02:16:52;;;;;;;8.63;3.47;;;;;;;5.55;100.00;103005.84;6082584;19;20039;-71
2024/02/02 02:18:59;;;;;;;14.95;3.75;;;;;;;5.54;100.00;102996.28;6084863;19;20047;-72
2024/02/02 02:21:26;;;;;;;18.33;4.10;;;;;;;5.55;100.00;102995.44;6083756;19;20389;-72
2024/02/02 02:23:35;;;;;;;9.43;3.97;;;;;;;5.55;100.00;102991.94;6086682;19;19999;-72
2024/02/02 02:25:41;;;;;;;11.07;3.72;;;;;;;5.59;100.00;102986.81;6084521;19;20010;-73
2024/02/02 02:27:47;;;;;;;15.02;4.43;;;;;;;5.56;100.00;102985.91;6083764;19;20461;-72
2024/02/02 02:29:49;;;;;;;13.30;4.18;;;;;;;5.60;100.00;102987.69;6084910;19;20007;-71
2024/02/02 02:31:55;;;;;;;14.07;4.13;;;;;;;5.59;100.00;102989.41;6085446;19;20020;-71
2024/02/02 02:34:01;;;;;;;17.10;4.63;;;;;;;5.59;100.00;102989.41;6085027;19;20010;-70
2024/02/02 02:36:07;;;;;;;13.75;3.92;;;;;;;5.59;100.00;102986.81;6086112;19;20481;-71
2024/02/02 02:38:14;;;;;;;14.25;4.05;;;;;;;5.62;100.00;102993.81;6084329;19;20455;-70
2024/02/02 02:40:19;;;;;;;16.65;4.70;;;;;;;5.62;100.00;102980.75;6085165;19;20138;-73
2024/02/02 02:42:22;;;;;;;16.48;3.97;;;;;;;5.66;100.00;102978.22;6087072;19;20022;-72
2024/02/02 02:44:27;;;;;;;9.13;3.63;;;;;;;5.62;100.00;102976.41;6085008;19;20031;-72
2024/02/02 02:46:33;;;;;;;14.48;4.13;;;;;;;5.57;100.00;102993.72;6083900;19;20876;-71
2024/02/02 02:48:38;;;;;;;14.68;4.40;;;;;;;5.57;100.00;102991.13;6087490;19;19999;-72
2024/02/02 02:50:43;;;;;;;13.98;3.58;;;;;;;5.53;100.00;102986.72;6085196;19;20354;-71
2024/02/02 02:52:49;;;;;;;10.65;4.18;;;;;;;5.52;100.00;102973.66;6082282;19;20024;-70
2024/02/02 02:54:56;;;;;;;12.45;4.40;;;;;;;5.48;100.00;102971.00;6086885;19;20047;-72
2024/02/02 02:57:01;;;;;;;15.77;3.90;;;;;;;5.47;100.00;102979.66;6085467;19;20006;-71
2024/02/02 02:59:09;;;;;;;14.00;4.13;;;;;;;5.43;100.00;102977.00;6085785;19;20369;-71
2024/02/02 03:01:14;;;;;;;12.55;3.50;;;;;;;5.44;100.00;102983.97;6085498;19;20039;-71
2024/02/02 03:03:19;;;;;;;16.73;4.93;;;;;;;5.39;100.00;102985.63;6083554;19;20533;-70
2024/02/02 03:05:25;;;;;;;15.50;3.92;;;;;;;5.41;100.00;102978.72;6084743;19;20010;-70
2024/02/02 03:07:30;;;;;;;12.98;3.03;;;;;;;5.37;100.00;102976.88;6084631;19;20035;-72
2024/02/02 03:09:35;;;;;;;13.95;4.97;;;;;;;5.33;100.00;102972.50;6083480;19;20015;-71
2024/02/02 03:11:43;;;;;;;17.75;4.53;;;;;;;5.33;100.00;102977.72;6082533;19;20433;-71
2024/02/02 03:13:48;;;;;;;11.30;3.70;;;;;;;5.32;100.00;102979.44;6085421;19;20451;-71
2024/02/02 03:15:53;;;;;;;15.25;3.85;;;;;;;5.28;100.00;102969.81;6084129;19;20007;-71
2024/02/02 03:17:59;;;;;;;12.70;4.85;;;;;;;5.26;100.00;102967.16;6084598;19;20498;-72
2024/02/02 03:20:07;;;;;;;11.95;3.67;;;;;;;5.25;100.00;102959.34;6084003;19;20013;-72
2024/02/02 03:22:12;;;;;;;10.73;3.25;;;;;;;5.18;100.00;102954.88;6082317;19;20442;-71
2024/02/02 03:24:17;;;;;;;8.80;3.00;;;;;;;5.17;100.00;102951.41;6084452;19;20082;-72
2024/02/02 03:26:23;;;;;;;9.50;3.75;;;;;;;5.17;100.00;102951.41;6084360;19;20006;-71
2024/02/02 03:28:31;;;;;;;16.80;4.05;;;;;;;5.18;100.00;102934.03;6083511;19;20015;-71
2024/02/02 03:30:36;;;;;;;8.13;3.90;;;;;;;5.22;100.00;102933.25;6083845;19;20023;-70
2024/02/02 03:32:41;;;;;;;17.63;5.13;;;;;;;5.14;100.00;102933.13;6086384;19;20813;-72
2024/02/02 03:34:47;;;;;;;13.93;3.80;;;;;;;5.16;100.00;102923.59;6082032;19;20024;-71
2024/02/02 03:36:52;;;;;;;10.63;3.45;;;;;;;5.20;100.00;102935.81;6082517;19;20010;-72
2024/02/02 03:38:54;;;;;;;12.98;3.58;;;;;;;5.19;100.00;102934.06;6080866;19;20013;-70
2024/02/02 03:41:01;;;;;;;12.85;3.35;;;;;;;5.19;100.00;102938.41;6084867;19;20003;-72
2024/02/02 03:43:06;;;;;;;7.90;3.28;;;;;;;5.18;100.00;102937.50;6082917;19;20022;-72
2024/02/02 03:45:15;;;;;;;15.57;3.85;;;;;;;5.17;100.00;102934.91;6083394;19;20245;-71
2024/02/02 03:47:18;;;;;;;8.38;2.67;;;;;;;5.17;100.00;102935.75;6083167;19;20010;-72
2024/02/02 03:49:26;;;;;;;13.55;3.25;;;;;;;5.16;100.00;102933.13;6081805;19;20479;-72
2024/02/02 03:51:29;;;;;;;9.77;3.78;;;;;;;5.14;100.00;102934.84;6082316;19;20013;-72
2024/02/02 03:53:36;;;;;;;;;;;;;;;5.10;100.00;102935.63;6083289;19;20028;-72
2024/02/02 03:55:41;;;;;;;10.02;3.03;;;;;;;5.10;100.00;102930.44;6083451;19;19914;-72
2024/02/02 03:57:46;;;;;;;11.57;3.22;;;;;;;5.16;100.00;102933.13;6076685;19;20014;-72
2024/02/02 03:59:51;;;;;;;9.27;2.90;;;;;;;5.16;100.00;102934.03;6081425;19;20169;-73
2024/02/02 04:02:00;;;;;;;15.38;4.55;;;;;;;5.19;100.00;102921.03;6081348;19;20475;-72
2024/02/02 04:04:05;;;;;;;11.85;3.22;;;;;;;5.22;100.00;102921.06;6082118;19;20013;-73
2024/02/02 04:06:11;;;;;;;12.35;3.08;;;;;;;5.20;100.00;102917.56;6084299;19;20006;-72
2024/02/02 04:08:16;;;;;;;12.20;2.95;;;;;;;5.20;100.00;102925.38;6082437;19;20457;-72
2024/02/02 04:10:22;;;;;;;23.90;3.53;;;;;;;5.21;100.00;102927.16;6079991;19;20902;-72
2024/02/02 04:12:27;;;;;;;15.00;2.80;;;;;;;5.22;100.00;102920.19;6082215;19;20011;-73
2024/02/02 04:14:30;;;;;;;14.32;3.05;;;;;;;5.17;100.00;102929.69;6083929;19;20002;-74
2024/02/02 04:16:35;;;;;;;14.23;3.17;;;;;;;5.20;100.00;102927.13;6076730;19;20003;-72
2024/02/02 04:18:43;;;;;;;14.65;3.60;;;;;;;5.20;100.00;102909.75;6083362;19;20077;-71
2024/02/02 04:20:48;;;;;;;13.00;3.53;;;;;;;5.23;100.00;102904.56;6083644;19;20018;-71
2024/02/02 04:22:53;;;;;;;7.20;2.55;;;;;;;5.24;100.00;102911.56;6084059;19;20570;-71
2024/02/02 04:24:58;;;;;;;9.65;2.97;;;;;;;5.21;100.00;102913.22;6080007;19;20023;-71
2024/02/02 04:27:01;;;;;;;6.65;2.40;;;;;;;5.18;100.00;102902.75;6082819;19;20022;-72
2024/02/02 04:29:07;;;;;;;12.13;3.92;;;;;;;5.21;100.00;102906.31;6079558;19;20011;-71
2024/02/02 04:31:12;;;;;;;10.27;2.30;;;;;;;5.27;100.00;102905.50;6079483;19;20014;-71
2024/02/02 04:33:17;;;;;;;8.57;2.28;;;;;;;5.22;100.00;102901.97;6080486;19;20078;-70
2024/02/02 04:35:26;;;;;;;15.00;3.40;;;;;;;5.17;100.00;102916.66;6078940;19;20487;-71
2024/02/02 04:37:31;;;;;;;6.30;2.35;;;;;;;5.23;100.00;102920.22;6081319;19;20030;-70
2024/02/02 04:39:36;;;;;;;7.75;3.13;;;;;;;5.22;100.00;102918.47;6082844;19;20019;-70
2024/02/02 04:41:41;;;;;;;8.57;2.75;;;;;;;5.24;100.00;102911.56;6082820;19;20003;-70
2024/02/02 04:43:46;;;;;;;17.88;4.28;;;;;;;5.23;100.00;102904.56;6079021;19;20081;-71
2024/02/02 04:45:52;;;;;;;14.32;3.08;;;;;;;5.26;100.00;102895.91;6081414;19;20038;-71
2024/02/02 04:47:57;;;;;;;8.95;2.78;;;;;;;5.25;100.00;102886.34;6080990;19;20003;-71
2024/02/02 04:50:02;;;;;;;9.85;3.30;;;;;;;5.27;100.00;102890.75;6080671;19;20003;-71
2024/02/02 04:52:10;;;;;;;5.93;2.13;;;;;;;5.19;100.00;102879.34;6079957;19;20021;-72
2024/02/02 04:54:12;;;;;;;9.73;2.65;;;;;;;5.22;100.00;102886.31;6080787;19;22811;-71
2024/02/02 04:56:18;;;;;;;4.95;2.40;;;;;;;5.23;100.00;102885.44;6080078;19;20011;-70
2024/02/02 04:58:23;;;;;;;14.50;4.70;;;;;;;5.22;100.00;102879.38;6082941;19;20031;-72
2024/02/02 05:00:29;;;;;;;5.10;2.63;;;;;;;5.21;100.00;102888.06;6078804;19;20003;-72
2024/02/02 05:02:34;;;;;;;18.95;3.10;;;;;;;5.20;100.00;102880.19;6082740;19;20002;-72
2024/02/02 05:04:40;;;;;;;21.63;3.80;;;;;;;5.18;100.00;102874.94;6081976;19;20408;-71
2024/02/02 05:06:46;;;;;;;12.90;3.13;;;;;;;5.14;100.00;102894.03;6081097;19;20118;-71
2024/02/02 05:08:53;;;;;;;12.75;2.63;;;;;;;5.14;100.00;102888.81;6081275;19;19999;-71
2024/02/02 05:10:58;;;;;;;9.07;2.80;;;;;;;5.19;100.00;102884.53;6079305;19;20043;-72
2024/02/02 05:13:03;;;;;;;11.10;2.47;;;;;;;5.18;100.00;102874.94;6081844;19;20011;-71
2024/02/02 05:15:10;;;;;;;11.70;3.38;;;;;;;5.19;100.00;102868.03;6081888;19;20081;-72
2024/02/02 05:17:15;;;;;;;13.05;3.22;;;;;;;5.20;100.00;102868.03;6081363;19;20044;-72
2024/02/02 05:19:20;;;;;;;16.83;3.30;;;;;;;5.22;100.00;102870.69;6079608;19;20024;-72
2024/02/02 05:21:22;;;;;;;16.60;4.07;;;;;;;5.20;100.00;102870.66;6081376;19;20014;-70
2024/02/02 05:23:28;;;;;;;7.72;5.03;;;;;;;5.18;100.00;102864.53;6083781;19;20007;-70
2024/02/02 05:25:35;;;;;;;12.70;3.15;;;;;;;5.18;100.00;102871.47;6086342;19;20003;-70
2024/02/02 05:27:41;;;;;;;9.35;2.78;;;;;;;5.18;100.00;102864.53;6086137;19;20009;-72
2024/02/02 05:29:48;;;;;;;30.85;4.22;;;;;;;5.19;100.00;102855.00;6085934;19;20018;-72
2024/02/02 05:31:54;;;;;;;8.25;2.97;;;;;;;5.22;100.00;102858.53;6086623;19;20014;-73
2024/02/02 05:33:59;;;;;;;13.88;3.58;;;;;;;5.20;100.00;102865.44;6088196;19;20010;-71
2024/02/02 05:36:04;;;;;;;18.58;5.10;;;;;;;5.24;100.00;102872.47;6088963;19;21057;-73
2024/02/02 05:38:09;;;;;;;7.70;2.97;;;;;;;5.26;100.00;102869.84;6083669;19;20046;-70
2024/02/02 05:40:15;;;;;;;10.18;2.72;;;;;;;5.24;100.00;102868.97;6088384;19;20080;-70
2024/02/02 05:42:23;;;;;;;16.33;3.17;;;;;;;5.27;100.00;102869.03;6088778;19;20099;-70
2024/02/02 05:44:26;;;;;;;8.20;2.75;;;;;;;5.23;100.00;102875.91;6087286;19;20013;-74
2024/02/02 05:46:31;;;;;;;8.45;2.58;;;;;;;5.28;100.00;102874.22;6086193;19;20523;-70
2024/02/02 05:48:39;;;;;;;9.30;3.58;;;;;;;5.22;100.00;102866.34;6086607;19;20373;-72
2024/02/02 05:50:46;;;;;;;16.33;3.80;;;;;;;5.22;100.00;102858.53;6086891;19;20022;-70
2024/02/02 05:52:52;;;;;;;22.17;3.72;;;;;;;5.21;100.00;102864.59;6080739;19;20007;-70
2024/02/02 05:54:57;;;;;;;15.48;3.33;;;;;;;5.19;100.00;102871.50;6084503;19;20478;-71
2024/02/02 05:57:02;;;;;;;14.77;4.10;;;;;;;5.19;100.00;102873.25;6085217;19;20003;-70
2024/02/02 05:59:10;;;;;;;8.88;3.25;;;;;;;5.25;100.00;102882.00;6084270;19;20032;-70
2024/02/02 06:01:16;;;;;;;11.32;3.28;;;;;;;5.19;100.00;102887.16;6086179;19;20404;-72
2024/02/02 06:03:22;;;;;;;22.70;4.03;;;;;;;5.19;100.00;102884.53;6084744;19;20014;-72
2024/02/02 06:05:27;;;;;;;12.45;3.85;;;;;;;5.28;100.00;102876.84;6087086;19;20363;-72
2024/02/02 06:07:30;;;;;;;8.88;3.17;;;;;;;5.27;100.00;102880.31;6084316;19;20494;-72
2024/02/02 06:09:35;;;;;;;;;;;;;;;5.23;100.00;102882.84;6087809;19;20006;-72
2024/02/02 06:11:40;;;;;;;6.53;3.30;;;;;;;5.21;100.00;102880.25;6086205;19;20045;-72
2024/02/02 06:13:45;;;;;;;10.23;3.03;;;;;;;5.20;100.00;102881.06;6083228;19;20443;-72
2024/02/02 06:15:53;;;;;;;24.90;3.33;;;;;;;5.21;100.00;102879.34;6085195;19;20007;-70
2024/02/02 06:17:58;;;;;;;11.13;3.33;;;;;;;5.24;100.00;102875.06;6084416;19;20019;-70
2024/02/02 06:20:00;;;;;;;14.15;3.63;;;;;;;5.20;100.00;102877.59;6083864;19;20034;-72
2024/02/02 06:22:06;;;;;;;14.32;3.58;;;;;;;5.18;100.00;102879.28;6083934;19;20003;-71
2024/02/02 06:24:08;;;;;;;26.58;4.40;;;;;;;5.17;100.00;102882.78;6085766;19;20853;-71
2024/02/02 06:26:13;;;;;;;7.30;3.03;;;;;;;5.14;100.00;102882.72;6083526;19;20014;-71
2024/02/02 06:28:19;;;;;;;8.52;2.92;;;;;;;5.07;100.00;102876.53;6082783;19;20333;-73
2024/02/02 06:30:24;;;;;;;16.52;4.53;;;;;;;5.17;100.00;102870.59;6080400;19;20023;-73
2024/02/02 06:32:35;;;;;;;8.57;3.40;;;;;;;5.19;100.00;102860.22;6084684;19;20017;-72
2024/02/02 06:34:40;;;;;;;16.92;3.33;;;;;;;5.20;100.00;102878.47;6081389;19;20735;-71
2024/02/02 06:36:45;;;;;;;15.45;3.65;;;;;;;5.25;100.00;102871.59;6083390;19;20546;-71
2024/02/02 06:38:50;;;;;;;15.45;3.05;;;;;;;5.24;100.00;102879.41;6082962;19;20007;-70
2024/02/02 06:40:57;;;;;;;12.60;4.07;;;;;;;5.24;100.00;102871.59;6083827;19;20019;-70
2024/02/02 06:43:04;;;;;;;18.67;4.03;;;;;;;5.27;100.00;102880.31;6085568;19;21214;-75
2024/02/02 06:45:10;;;;;;;11.32;2.97;;;;;;;5.25;100.00;102884.63;6085057;19;20142;-72
2024/02/02 06:47:15;;;;;;;16.60;3.22;;;;;;;5.31;100.00;102875.13;6084176;19;20007;-71
2024/02/02 06:49:23;;;;;;;17.92;4.43;;;;;;;5.27;100.00;102876.84;6083016;19;20031;-72
2024/02/02 06:51:30;;;;;;;6.03;2.70;;;;;;;5.30;100.00;102871.66;6083449;19;20011;-73
2024/02/02 06:53:36;;;;;;;14.77;2.97;;;;;;;5.27;100.00;102866.41;6082655;19;20028;-73
2024/02/02 06:55:41;;;;;;;18.35;3.55;;;;;;;5.29;100.00;102859.47;6084914;19;20484;-72
2024/02/02 06:57:47;;;;;;;14.73;3.22;;;;;;;5.26;100.00;102862.91;6084139;19;20003;-73
2024/02/02 06:59:55;;;;;;;16.95;3.28;;;;;;;5.28;100.00;102863.81;6081920;19;20007;-73
2024/02/02 07:02:02;;;;;;;10.30;2.63;;;;;;;5.35;100.00;102870.00;6085078;19;20683;-74
2024/02/02 07:04:10;;;;;;;10.98;3.08;;;;;;;5.36;100.00;102863.03;6088579;19;20010;-74
2024/02/02 07:06:19;;;;;;;13.48;3.05;;;;;;;5.35;100.00;102856.97;6085569;19;20048;-74
2024/02/02 07:08:24;;;;;;;12.80;2.90;;;;;;;5.31;100.00;102864.72;6086047;19;20069;-72
2024/02/02 07:10:27;;;;;;;12.80;3.35;;;;;;;5.35;100.00;102863.91;6085949;19;20023;-73
2024/02/02 07:12:59;;;;;;;10.85;3.17;;;;;;;5.43;100.00;102865.75;6085401;19;20782;-72
2024/02/02 07:15:07;;;;;;;11.10;3.28;;;;;;;5.42;100.00;102868.34;6083219;19;20042;-72
2024/02/02 07:17:21;;;;;;;6.35;2.78;;;;;;;5.40;100.00;102870.06;6086118;19;20036;-72
2024/02/02 07:19:40;;;;;;;12.45;2.80;;;;;;;5.42;100.00;102864.00;5991873;19;2004684;-73
2024/02/02 07:21:48;;;;;;;10.65;3.08;;;;;;;5.39;100.00;102860.47;6084956;19;26178;-73
2024/02/02 07:23:54;;;;;;;17.90;3.95;;;;;;;5.39;100.00;102857.88;6084336;19;20114;-73
2024/02/02 07:25:57;;;;;;;10.18;3.97;;;;;;;5.43;100.00;102859.69;6087318;19;20024;-73
2024/02/02 07:28:06;;;;;;;13.95;2.95;;;;;;;5.40;100.00;102857.03;6085430;19;20009;-72
2024/02/02 07:30:15;;;;;;;13.43;3.25;;;;;;;5.42;100.00;102864.00;6084179;19;20010;-73
2024/02/02 07:32:20;;;;;;;10.50;3.20;;;;;;;5.46;100.00;102862.31;6084475;19;20419;-73
2024/02/02 07:34:42;;;;;;;8.05;3.25;;;;;;;5.45;100.00;102856.22;6084907;19;20012;-75
2024/02/02 07:36:50;;;;;;;18.15;3.35;;;;;;;5.47;100.00;102864.94;6084131;19;20161;-73
2024/02/02 07:38:56;;;;;;;10.40;3.00;;;;;;;5.50;100.00;102854.56;6084354;19;20030;-74
2024/02/02 07:41:04;;;;;;;12.65;3.15;;;;;;;5.52;100.00;102857.16;6083270;19;20006;-74
2024/02/02 07:43:09;;;;;;;14.90;3.70;;;;;;;5.52;100.00;102858.91;6083932;19;20365;-74
2024/02/02 07:45:14;;;;;;;15.82;3.92;;;;;;;5.56;100.00;102861.59;6079687;19;20006;-73
2024/02/02 07:47:20;;;;;;;14.48;3.83;;;;;;;5.54;100.00;102852.84;6084657;19;20035;-73
2024/02/02 07:49:25;;;;;;;15.25;3.20;;;;;;;5.60;100.00;102860.75;6081128;19;20381;-73
2024/02/02 07:51:28;;;;;;;16.20;3.15;;;;;;;5.59;100.00;102858.13;6079810;19;20348;-72
2024/02/02 07:53:36;;;;;;;9.20;2.75;;;;;;;5.65;100.00;102861.69;6081773;19;20023;-72
2024/02/02 07:55:42;;;;;;;16.23;3.58;;;;;;;5.63;100.00;102852.97;6081171;19;20368;-73
2024/02/02 07:57:47;;;;;;;6.50;2.75;;;;;;;5.70;100.00;102856.53;6082432;19;20557;-73
2024/02/02 07:59:52;;;;;;;12.70;3.63;;;;;;;5.72;100.00;102857.44;6080893;19;20219;-73
2024/02/02 08:01:57;;;;;;;18.98;3.35;;;;;;;5.72;100.00;102860.03;6083207;19;20003;-74
2024/02/02 08:04:03;;;;;;;16.90;3.67;;;;;;;5.75;100.00;102856.59;6081521;19;20558;-74
2024/02/02 08:06:07;;;;;;;9.77;3.03;;;;;;;5.80;100.00;102850.56;6083532;19;20015;-73
2024/02/02 08:08:13;;;;;;;10.55;2.67;;;;;;;5.86;100.00;102857.59;6083288;19;20001;-73
2024/02/02 08:10:20;;;;;;;13.48;4.07;;;;;;;5.90;100.00;102844.59;6083211;19;20017;-70
2024/02/02 08:12:33;;;;;;;10.50;3.25;;;;;;;5.92;100.00;102850.72;6083639;19;20034;-71
2024/02/02 08:14:39;;;;;;;20.90;3.47;;;;;;;5.93;100.00;102859.41;6080926;19;20038;-72
2024/02/02 08:16:45;;;;;;;12.68;3.53;;;;;;;5.97;100.00;102842.94;6082520;19;20014;-72
2024/02/02 08:18:50;;;;;;;8.90;3.38;;;;;;;6.02;100.00;102845.63;6081042;19;20018;-72
2024/02/02 08:20:55;;;;;;;16.35;3.40;;;;;;;6.03;100.00;102847.34;6083790;19;20014;-73
2024/02/02 08:23:01;;;;;;;12.50;3.55;;;;;;;6.05;100.00;102838.69;6081354;19;20035;-73
2024/02/02 08:25:07;;;;;;;13.60;3.47;;;;;;;6.09;100.00;102835.25;6083998;19;20019;-73
2024/02/02 08:27:19;;;;;;;15.68;3.25;;;;;;;6.06;100.00;102837.84;6083248;19;20007;-73
2024/02/02 08:29:24;;;;;;;12.25;3.65;;;;;;;6.14;100.00;102830.97;6084967;19;20033;-71
2024/02/02 08:31:30;;;;;;;7.82;3.08;;;;;;;6.20;100.00;102831.88;6084462;19;20014;-74
2024/02/02 08:33:36;;;;;;;10.27;2.47;;;;;;;6.22;100.00;102827.56;6086216;19;20358;-75
2024/02/02 08:35:42;;;;;;;12.68;3.15;;;;;;;6.27;100.00;102821.53;6080474;19;20006;-72
2024/02/02 08:37:44;;;;;;;12.38;3.75;;;;;;;6.31;100.00;102825.03;6081585;19;20028;-72
2024/02/02 08:39:50;;;;;;;19.02;3.72;;;;;;;6.35;100.00;102826.81;6080820;19;20010;-70
2024/02/02 08:41:55;;;;;;;18.52;4.15;;;;;;;6.37;100.00;102819.84;6080474;19;20002;-71
2024/02/02 08:44:07;;;;;;;21.60;3.85;;;;;;;6.44;100.00;102826.00;6082281;19;20014;-73
2024/02/02 08:46:13;;;;;;;22.90;3.95;;;;;;;6.48;100.00;102822.56;6082431;19;20111;-71
2024/02/02 08:48:34;;;;;;;14.77;3.20;;;;;;;6.50;100.00;102824.34;6081606;19;20006;-71
2024/02/02 08:50:40;;;;;;;15.35;4.05;;;;;;;6.53;100.00;102820.84;6082415;19;20023;-72
2024/02/02 08:52:43;;;;;;;25.40;4.05;;;;;;;6.57;100.00;102826.13;6078185;19;20187;-71
2024/02/02 08:54:50;;;;;;;20.20;5.57;;;;;;;6.61;100.00;102827.03;6079344;19;20018;-72
2024/02/02 08:57:14;;;;;;;18.20;3.83;;;;;;;6.63;100.00;102821.81;6082219;19;20002;-71
2024/02/02 08:59:39;;;;;;;25.67;4.38;;;;;;;6.66;100.00;102813.97;6084332;19;20629;-71
2024/02/02 09:01:45;;;;;;;18.85;3.60;;;;;;;6.69;100.00;102814.91;6086151;19;20042;-70
2024/02/02 09:03:52;;;;;;;22.23;3.17;;;;;;;6.75;100.00;102809.72;6090611;19;20566;-71
2024/02/02 09:05:56;;;;;;;17.88;3.75;;;;;;;6.79;100.00;102805.38;6088433;19;20002;-72
2024/02/02 09:08:12;;;;;;;13.93;3.38;;;;;;;6.81;100.00;102808.88;6089608;19;20074;-72
2024/02/02 09:10:43;;;;;;;19.38;4.35;;;;;;;6.84;100.00;102813.25;5985280;19;2004686;-71
2024/02/02 09:12:53;;;;;;;10.88;3.35;;;;;;;6.87;100.00;102815.88;6087366;19;20056;-72
2024/02/02 09:15:01;;;;;;;14.90;3.22;;;;;;;6.90;100.00;102808.94;6086441;19;20060;-74
2024/02/02 09:17:07;;;;;;;30.35;5.85;;;;;;;6.91;100.00;102805.47;6088608;19;20014;-70
2024/02/02 09:19:26;;;;;;;19.85;3.88;;;;;;;6.97;100.00;102805.47;6087644;19;20203;-72
2024/02/02 09:21:36;;;;;;;19.15;4.57;;;;;;;6.98;100.00;102806.38;6084492;19;20769;-73
2024/02/02 09:23:48;;;;;;;17.95;4.82;;;;;;;7.00;100.00;102802.00;6085890;19;20078;-73
2024/02/02 09:25:54;;;;;;;;;;;;;;;7.07;100.00;102805.56;6089208;19;20014;-70
2024/02/02 09:27:59;;;;;;;19.13;4.13;;;;;;;7.10;100.00;102801.22;6083998;19;19919;-71
2024/02/02 09:30:13;;;;;;;18.42;4.03;;;;;;;7.09;100.00;102809.94;6087625;19;20035;-71
2024/02/02 09:32:19;;;;;;;14.07;3.25;;;;;;;7.17;100.00;102807.34;6088519;19;20502;-70
2024/02/02 09:34:24;;;;;;;13.13;3.88;;;;;;;7.20;100.00;102807.38;6089513;19;20010;-71
2024/02/02 09:36:30;;;;;;;13.82;3.83;;;;;;;7.29;100.00;102796.94;6084364;19;20006;-72
2024/02/02 09:38:33;;;;;;;18.63;5.13;;;;;;;7.36;100.00;102798.72;6085989;19;20014;-71
2024/02/02 09:41:16;;;;;;;30.73;5.40;;;;;;;7.41;100.00;102802.22;6088406;19;20002;-71
2024/02/02 09:43:30;;;;;;;15.57;4.55;;;;;;;7.50;100.00;102804.00;6085976;19;20486;-71